Time;durP1;ratioP1;P1;durP2;ratioP2;P2;SDS_P1;SDS_P2;PMS_P1;PMS_P2;Temp;Humidity;BMP_temperature;BMP_pressure;BME280_temperature;BME280_humidity;BME280_pressure;Samples;Min_cycle;Max_cycle;Signal;HPM_P1;HPM_P2
2023/01/09 00:00:46;;;;;;;1.63;1.27;;;;;;;6.36;92.18;98899.63;5049817;28;20221;-84
2023/01/09 00:03:13;;;;;;;2.37;1.50;;;;;;;6.39;92.80;98902.91;5045972;28;20205;-84
2023/01/09 00:05:39;;;;;;;1.30;1.20;;;;;;;6.42;93.15;98893.91;5044744;28;20202;-84
2023/01/09 00:08:06;;;;;;;2.60;1.30;;;;;;;6.44;92.95;98878.75;5045706;28;20229;-81
2023/01/09 00:10:32;;;;;;;2.33;1.30;;;;;;;6.44;93.45;98889.34;5047835;28;20220;-83
2023/01/09 00:13:00;;;;;;;1.93;1.50;;;;;;;6.42;93.45;98884.16;5043332;28;20617;-85
2023/01/09 00:15:27;;;;;;;2.43;1.10;;;;;;;6.42;93.55;98880.69;5046723;28;20204;-83
2023/01/09 00:17:54;;;;;;;2.90;1.50;;;;;;;6.43;93.94;98874.44;5047224;28;20240;-84
2023/01/09 00:20:20;;;;;;;1.13;1.03;;;;;;;6.45;93.53;98883.09;5046520;28;20222;-86
2023/01/09 00:22:46;;;;;;;1.57;1.13;;;;;;;6.47;94.13;98873.22;5040480;28;20886;-85
2023/01/09 00:25:13;;;;;;;1.00;0.90;;;;;;;6.49;94.45;98872.16;5046018;28;20209;-83
2023/01/09 00:27:40;;;;;;;3.57;1.30;;;;;;;6.51;94.24;98862.31;5043488;28;20206;-85
2023/01/09 00:30:11;;;;;;;1.50;1.20;;;;;;;6.55;94.87;98860.28;5044210;28;20597;-84
2023/01/09 00:32:38;;;;;;;2.33;1.03;;;;;;;6.58;94.65;98857.41;5042449;28;20206;-82
2023/01/09 00:35:05;;;;;;;1.20;1.10;;;;;;;6.61;94.75;98855.38;5041578;28;20206;-84
2023/01/09 00:37:31;;;;;;;2.87;1.03;;;;;;;6.64;94.98;98859.56;5040111;28;20206;-84
2023/01/09 00:39:58;;;;;;;1.97;1.20;;;;;;;6.69;94.90;98846.00;5046616;28;20225;-84
2023/01/09 00:42:30;;;;;;;1.47;1.00;;;;;;;6.70;95.38;98847.69;5042895;28;20218;-81
2023/01/09 00:45:01;;;;;;;2.43;1.57;;;;;;;6.73;94.90;98848.31;5035976;28;20202;-85
2023/01/09 00:47:32;;;;;;;2.63;1.37;;;;;;;6.74;95.22;98847.34;5041551;28;20194;-82
2023/01/09 00:50:00;;;;;;;2.00;1.30;;;;;;;6.77;95.13;98844.47;5036014;28;20225;-82
2023/01/09 00:52:30;;;;;;;3.63;1.40;;;;;;;6.79;94.93;98847.00;5039996;28;20711;-84
2023/01/09 00:54:57;;;;;;;2.30;1.70;;;;;;;6.80;94.77;98841.59;5038047;28;20574;-85
2023/01/09 00:57:24;;;;;;;2.53;1.53;;;;;;;6.84;95.36;98839.53;5040770;28;20299;-84
2023/01/09 00:59:52;;;;;;;2.60;1.30;;;;;;;6.85;94.52;98839.41;5041000;28;20226;-84
2023/01/09 01:02:18;;;;;;;1.93;1.33;;;;;;;6.86;94.94;98842.91;5043051;28;20232;-85
2023/01/09 01:07:40;;;;;;;1.60;1.17;;;;;;;6.88;94.54;98841.84;5039911;28;20626;-83
2023/01/09 01:10:12;;;;;;;2.47;1.60;;;;;;;6.89;94.62;98847.97;5041316;28;20307;-84
2023/01/09 01:12:39;;;;;;;1.83;1.20;;;;;;;6.91;94.89;98836.31;5050333;28;20229;-85
2023/01/09 01:15:07;;;;;;;1.83;1.00;;;;;;;6.91;94.75;98835.47;5049677;28;20209;-85
2023/01/09 01:17:35;;;;;;;1.17;0.97;;;;;;;6.90;95.00;98831.97;5041224;28;20499;-85
2023/01/09 01:20:03;;;;;;;1.17;1.00;;;;;;;6.91;94.28;98831.03;5044974;28;20708;-84
2023/01/09 01:22:29;;;;;;;1.90;1.10;;;;;;;6.92;94.37;98835.34;5046384;28;20599;-84
2023/01/09 01:24:56;;;;;;;1.50;1.00;;;;;;;6.91;94.18;98841.59;5040998;28;20205;-85
2023/01/09 01:27:22;;;;;;;2.03;1.10;;;;;;;6.93;94.25;98841.50;5052753;28;20220;-84
2023/01/09 01:29:50;;;;;;;1.40;1.00;;;;;;;6.94;93.87;98844.03;5041658;28;20771;-83
2023/01/09 01:32:17;;;;;;;3.73;1.50;;;;;;;6.94;93.89;98837.88;5049828;28;20217;-85
2023/01/09 01:34:43;;;;;;;1.50;1.30;;;;;;;6.95;94.21;98837.78;5042146;28;20204;-83
2023/01/09 01:37:11;;;;;;;2.83;1.30;;;;;;;6.97;94.27;98840.31;5044520;28;20209;-84
2023/01/09 01:39:38;;;;;;;1.60;1.10;;;;;;;6.97;93.94;98835.84;5048089;28;20221;-82
2023/01/09 01:42:05;;;;;;;1.87;1.10;;;;;;;7.00;94.28;98828.59;5049556;28;20225;-82
2023/01/09 01:45:01;;;;;;;4.03;1.23;;;;;;;7.01;94.54;98835.59;5044705;28;20672;-83
2023/01/09 01:47:32;;;;;;;2.17;1.10;;;;;;;7.01;94.25;98835.59;5048941;28;20213;-80
2023/01/09 01:50:00;;;;;;;1.00;0.90;;;;;;;7.01;94.22;98830.28;5052508;28;20225;-82
2023/01/09 01:52:30;;;;;;;2.20;1.30;;;;;;;7.00;94.97;98828.59;5049910;28;20204;-80
2023/01/09 01:54:57;;;;;;;2.73;1.30;;;;;;;7.01;94.71;98825.84;5043529;28;20208;-83
2023/01/09 01:57:24;;;;;;;2.77;1.07;;;;;;;7.02;94.84;98829.34;5038749;28;20614;-82
2023/01/09 01:59:55;;;;;;;1.00;0.90;;;;;;;7.02;95.25;98827.53;5049325;28;20221;-82
2023/01/09 02:02:25;;;;;;;2.07;1.33;;;;;;;7.01;95.54;98819.72;5046577;28;20240;-83
2023/01/09 02:04:53;;;;;;;1.87;1.30;;;;;;;7.00;95.55;98818.03;5048825;28;20662;-83
2023/01/09 02:07:20;;;;;;;1.40;1.27;;;;;;;7.00;96.12;98813.56;5045398;28;20675;-82
2023/01/09 02:09:48;;;;;;;5.10;1.40;;;;;;;6.99;96.56;98819.00;5051112;28;20229;-82
2023/01/09 02:12:17;;;;;;;2.97;1.27;;;;;;;6.97;96.27;98812.03;5050060;28;20205;-82
2023/01/09 02:14:46;;;;;;;2.97;1.50;;;;;;;6.97;96.70;98812.03;5051748;28;20575;-83
2023/01/09 02:17:23;;;;;;;1.50;1.40;;;;;;;6.97;97.73;98812.03;5040701;28;20217;-82
2023/01/09 02:20:31;;;;;;;1.77;1.40;;;;;;;6.96;97.75;98805.06;5040237;28;20320;-83
2023/01/09 02:23:08;;;;;;;2.00;1.57;;;;;;;6.96;98.09;98806.84;5033493;28;20272;-82
2023/01/09 02:26:01;;;;;;;2.57;1.37;;;;;;;6.95;98.27;98803.38;5045527;28;20546;-83
2023/01/09 02:28:53;;;;;;;3.30;1.60;;;;;;;6.96;98.20;98801.56;5035178;28;20223;-82
2023/01/09 02:31:27;;;;;;;4.00;2.10;;;;;;;6.95;98.70;98802.53;5047581;28;20225;-83
2023/01/09 02:34:02;;;;;;;2.20;1.83;;;;;;;6.94;98.77;98799.03;5041134;28;20206;-83
2023/01/09 02:36:34;;;;;;;3.00;2.17;;;;;;;6.95;99.11;98791.94;5038507;28;20206;-82
2023/01/09 02:39:22;;;;;;;3.93;2.37;;;;;;;6.96;99.44;98794.47;5050850;28;20210;-82
2023/01/09 02:41:53;;;;;;;2.60;2.13;;;;;;;6.95;99.38;98792.78;5045037;28;20244;-82
2023/01/09 02:44:25;;;;;;;2.70;1.70;;;;;;;6.95;99.75;98789.28;5052178;28;20528;-83
2023/01/09 02:47:04;;;;;;;2.67;1.80;;;;;;;6.97;100.00;98790.88;5053464;28;20225;-84
2023/01/09 02:49:32;;;;;;;1.97;1.57;;;;;;;6.97;100.00;98784.72;5051381;28;20225;-83
2023/01/09 02:52:13;;;;;;;1.97;1.70;;;;;;;6.96;100.00;98775.09;5054083;28;20200;-83
2023/01/09 02:54:51;;;;;;;2.73;1.60;;;;;;;6.96;100.00;98778.59;5047344;28;20570;-82
2023/01/09 02:57:32;;;;;;;2.37;1.53;;;;;;;6.97;100.00;98776.78;5042925;28;20209;-82
2023/01/09 03:00:10;;;;;;;2.40;1.50;;;;;;;6.97;100.00;98774.13;5049326;28;20584;-84
2023/01/09 03:02:46;;;;;;;2.17;1.80;;;;;;;6.97;100.00;98774.97;5046838;28;20220;-81
2023/01/09 03:05:20;;;;;;;2.60;1.70;;;;;;;7.00;100.00;98767.75;5050809;28;20213;-81
2023/01/09 03:07:54;;;;;;;2.23;1.47;;;;;;;7.01;100.00;98766.78;5046221;28;20202;-83
2023/01/09 03:10:30;;;;;;;1.93;1.57;;;;;;;7.02;100.00;98768.47;5048325;28;20221;-82
2023/01/09 03:12:59;;;;;;;2.27;1.87;;;;;;;7.00;100.00;98757.16;5047222;28;20201;-83
2023/01/09 03:15:32;;;;;;;3.57;1.80;;;;;;;7.01;100.00;98750.91;5040719;28;20221;-82
2023/01/09 03:18:01;;;;;;;1.70;1.53;;;;;;;7.02;100.00;98749.94;5044419;28;20650;-83
2023/01/09 03:20:30;;;;;;;3.67;1.97;;;;;;;7.01;100.00;98753.53;5052612;28;20699;-82
2023/01/09 03:22:59;;;;;;;2.00;1.70;;;;;;;7.01;100.00;98742.94;5048068;28;20237;-82
2023/01/09 03:25:28;;;;;;;2.43;1.87;;;;;;;7.02;100.00;98742.00;5046890;28;20217;-81
2023/01/09 03:27:57;;;;;;;4.77;2.87;;;;;;;7.02;100.00;98736.69;5044800;28;20205;-82
2023/01/09 03:30:25;;;;;;;3.60;2.20;;;;;;;7.02;100.00;98736.69;5049080;28;20229;-82
2023/01/09 03:32:51;;;;;;;2.90;2.30;;;;;;;7.02;100.00;98732.25;5047058;28;20209;-82
2023/01/09 03:35:19;;;;;;;2.67;2.27;;;;;;;7.04;100.00;98735.63;5042656;28;20203;-82
2023/01/09 03:37:45;;;;;;;2.63;2.20;;;;;;;7.05;100.00;98737.31;5045720;28;20197;-82
2023/01/09 03:40:12;;;;;;;2.77;2.53;;;;;;;7.05;100.00;98733.81;5046745;28;20222;-82
2023/01/09 03:42:39;;;;;;;4.77;2.70;;;;;;;7.04;100.00;98740.06;5041853;28;20222;-83
2023/01/09 03:45:06;;;;;;;4.03;2.73;;;;;;;7.05;100.00;98741.75;5051864;28;20217;-81
2023/01/09 03:47:33;;;;;;;3.20;2.57;;;;;;;7.04;100.00;98745.38;5050091;28;20216;-82
2023/01/09 03:49:59;;;;;;;3.53;2.73;;;;;;;7.05;100.00;98733.81;5046201;28;20316;-83
2023/01/09 03:52:27;;;;;;;2.80;2.00;;;;;;;7.07;100.00;98734.53;5046452;28;20697;-82
2023/01/09 03:54:54;;;;;;;3.20;2.30;;;;;;;7.06;100.00;98732.84;5039338;28;20203;-83
2023/01/09 03:57:20;;;;;;;1.83;1.67;;;;;;;7.07;100.00;98737.19;5051469;28;20206;-83
2023/01/09 03:59:47;;;;;;;2.03;1.80;;;;;;;7.07;100.00;98722.16;5047850;28;20288;-82
2023/01/09 04:02:13;;;;;;;2.53;2.10;;;;;;;7.07;100.00;98721.31;5043164;28;20241;-83
2023/01/09 04:04:40;;;;;;;3.87;2.10;;;;;;;7.05;100.00;98718.78;5053171;28;20560;-83
2023/01/09 04:07:06;;;;;;;2.63;2.33;;;;;;;7.06;100.00;98719.63;5042149;28;20817;-81
2023/01/09 04:09:34;;;;;;;2.73;2.33;;;;;;;7.05;100.00;98712.63;5049953;28;20232;-81
2023/01/09 04:12:00;;;;;;;3.17;2.40;;;;;;;7.05;100.00;98721.44;5051081;28;20224;-81
2023/01/09 04:14:27;;;;;;;4.30;2.37;;;;;;;7.04;100.00;98717.09;5047111;28;20210;-82
2023/01/09 04:16:53;;;;;;;2.83;2.10;;;;;;;7.06;100.00;98727.56;5045424;28;20198;-81
2023/01/09 04:19:20;;;;;;;6.60;3.90;;;;;;;7.05;100.00;98731.16;5048170;28;20275;-81
2023/01/09 04:21:46;;;;;;;16.07;6.60;;;;;;;7.05;100.00;98721.44;5046342;28;20201;-82
2023/01/09 04:24:13;;;;;;;8.10;4.40;;;;;;;7.06;100.00;98722.28;5045604;28;20684;-81
2023/01/09 04:26:41;;;;;;;8.23;4.67;;;;;;;7.08;100.00;98730.94;5043154;28;20208;-81
2023/01/09 04:29:07;;;;;;;7.67;4.20;;;;;;;7.08;100.00;98720.34;5048738;28;20205;-82
2023/01/09 04:31:33;;;;;;;5.60;3.87;;;;;;;7.09;100.00;98727.31;5040909;28;20202;-81
2023/01/09 04:34:00;;;;;;;2.20;1.90;;;;;;;7.08;100.00;98729.13;5048283;28;20257;-81
2023/01/09 04:36:26;;;;;;;1.77;1.40;;;;;;;7.09;100.00;98729.97;5043420;28;20201;-84
2023/01/09 04:38:53;;;;;;;1.97;1.40;;;;;;;7.08;100.00;98739.72;5048993;28;20206;-81
2023/01/09 04:44:01;;;;;;;1.67;1.47;;;;;;;7.09;100.00;98744.03;5046984;28;20692;-83
2023/01/09 04:46:28;;;;;;;1.73;1.30;;;;;;;7.10;100.00;98742.25;5045430;28;20209;-82
2023/01/09 04:48:54;;;;;;;1.70;1.10;;;;;;;7.10;100.00;98752.84;5044210;28;20202;-82
2023/01/09 04:51:20;;;;;;;1.30;1.10;;;;;;;7.12;100.00;98753.56;5048204;28;20237;-81
2023/01/09 04:53:47;;;;;;;1.70;1.33;;;;;;;7.11;100.00;98755.34;5046720;28;20201;-82
2023/01/09 04:56:13;;;;;;;1.97;1.10;;;;;;;7.12;100.00;98748.25;5051283;28;20210;-82
2023/01/09 04:58:40;;;;;;;1.50;1.30;;;;;;;7.13;100.00;98755.25;5043396;28;20328;-82
2023/01/09 05:01:08;;;;;;;2.23;1.10;;;;;;;7.11;100.00;98768.59;5049256;28;20251;-82
2023/01/09 05:03:34;;;;;;;0.63;0.63;;;;;;;7.11;100.00;98770.41;5044074;28;20233;-82
2023/01/09 05:06:01;;;;;;;1.23;0.97;;;;;;;7.09;100.00;98772.31;5046764;28;20202;-82
2023/01/09 05:08:27;;;;;;;0.93;0.50;;;;;;;7.07;100.00;98766.31;5043557;28;20623;-82
2023/01/09 05:10:54;;;;;;;1.60;0.70;;;;;;;7.07;100.00;98776.91;5042567;28;20684;-82
2023/01/09 05:13:20;;;;;;;0.83;0.53;;;;;;;7.04;100.00;98769.19;5037342;28;20464;-81
2023/01/09 05:15:46;;;;;;;0.67;0.40;;;;;;;7.02;100.00;98774.59;5040327;28;20214;-81
2023/01/09 05:18:15;;;;;;;0.70;0.60;;;;;;;7.02;100.00;98777.25;5045125;28;20287;-82
2023/01/09 05:20:41;;;;;;;0.57;0.40;;;;;;;7.03;100.00;98770.16;5044796;28;20232;-83
2023/01/09 05:23:08;;;;;;;1.40;0.50;;;;;;;7.02;100.00;98773.75;5043702;28;20235;-83
2023/01/09 05:25:34;;;;;;;0.43;0.43;;;;;;;7.00;100.00;98778.31;5046955;28;21899;-84
2023/01/09 05:28:01;;;;;;;0.77;0.67;;;;;;;6.98;100.00;98781.13;5048021;28;20209;-83
2023/01/09 05:30:27;;;;;;;0.50;0.50;;;;;;;6.97;100.00;98784.72;5050482;28;20671;-82
2023/01/09 05:32:54;;;;;;;0.70;0.40;;;;;;;6.99;100.00;98787.25;5039611;28;20641;-84
2023/01/09 05:35:22;;;;;;;0.50;0.40;;;;;;;6.96;100.00;98793.63;5042532;28;20805;-82
2023/01/09 05:37:48;;;;;;;0.70;0.60;;;;;;;6.96;100.00;98796.28;5050190;28;20213;-81
2023/01/09 05:40:15;;;;;;;0.57;0.57;;;;;;;6.95;100.00;98805.16;5048600;28;20233;-82
2023/01/09 05:42:42;;;;;;;0.70;0.60;;;;;;;6.95;100.00;98815.75;5048268;28;20225;-82
2023/01/09 05:45:10;;;;;;;1.93;0.73;;;;;;;6.93;100.00;98804.44;5047217;28;20205;-82
2023/01/09 05:47:36;;;;;;;1.47;0.70;;;;;;;6.94;100.00;98814.91;5044774;28;20807;-81
2023/01/09 05:50:03;;;;;;;0.70;0.70;;;;;;;6.94;100.00;98814.91;5040339;28;20266;-80
2023/01/09 05:52:31;;;;;;;1.23;0.83;;;;;;;6.95;100.00;98816.59;5052838;28;20194;-81
2023/01/09 05:54:57;;;;;;;2.70;1.10;;;;;;;6.95;100.00;98815.75;5048783;28;20206;-82
2023/01/09 05:57:24;;;;;;;1.27;1.17;;;;;;;6.95;100.00;98821.06;5041792;28;20216;-81
2023/01/09 05:59:50;;;;;;;1.50;1.40;;;;;;;6.96;100.00;98826.22;5045520;28;20229;-82
2023/01/09 06:02:17;;;;;;;1.57;1.20;;;;;;;6.97;100.00;98821.78;5040244;28;20217;-82
2023/01/09 06:04:43;;;;;;;1.40;1.30;;;;;;;6.94;100.00;98830.78;5046640;28;20229;-83
2023/01/09 06:07:10;;;;;;;1.43;1.33;;;;;;;6.95;100.00;98827.19;5046877;28;20208;-80
2023/01/09 06:09:37;;;;;;;2.00;1.77;;;;;;;6.95;100.00;98819.25;5054649;28;20351;-80
2023/01/09 06:12:04;;;;;;;1.70;1.60;;;;;;;6.96;100.00;98830.69;5048336;28;20930;-81
2023/01/09 06:14:31;;;;;;;2.13;1.90;;;;;;;6.96;100.00;98839.47;5047572;28;20200;-82
2023/01/09 06:16:57;;;;;;;4.43;3.33;;;;;;;6.95;100.00;98848.34;5045957;28;20201;-82
2023/01/09 06:19:24;;;;;;;4.43;2.93;;;;;;;6.99;100.00;98856.06;5046482;28;20230;-82
2023/01/09 06:21:52;;;;;;;5.33;2.80;;;;;;;6.97;100.00;98851.72;5048536;28;20206;-83
2023/01/09 06:24:19;;;;;;;2.90;2.60;;;;;;;6.97;100.00;98856.19;5048888;28;20241;-82
2023/01/09 06:26:46;;;;;;;3.97;2.73;;;;;;;6.93;100.00;98855.56;5052982;28;20205;-84
2023/01/09 06:29:13;;;;;;;5.30;2.80;;;;;;;6.92;99.86;98859.16;5052491;28;20205;-83
2023/01/09 06:31:39;;;;;;;4.73;3.00;;;;;;;6.89;99.81;98870.00;5050088;28;20664;-81
2023/01/09 06:34:06;;;;;;;2.90;2.50;;;;;;;6.87;99.34;98871.06;5050130;28;20217;-82
2023/01/09 06:36:32;;;;;;;3.30;2.50;;;;;;;6.86;99.36;98878.16;5044500;28;20668;-83
2023/01/09 06:38:59;;;;;;;3.10;2.77;;;;;;;6.85;98.83;98880.91;5044677;28;20221;-82
2023/01/09 06:41:25;;;;;;;5.17;3.00;;;;;;;6.82;98.43;98876.69;5046465;28;20219;-82
2023/01/09 06:43:53;;;;;;;4.17;3.20;;;;;;;6.83;97.87;98883.69;5051241;28;20795;-81
2023/01/09 06:46:19;;;;;;;4.93;3.40;;;;;;;6.81;98.14;98875.00;5053039;28;20205;-82
2023/01/09 06:48:46;;;;;;;4.70;3.43;;;;;;;6.79;97.22;98876.13;5047436;28;20205;-82
2023/01/09 06:51:12;;;;;;;4.37;3.67;;;;;;;6.76;97.41;98882.47;5049177;28;20234;-81
2023/01/09 06:53:39;;;;;;;5.30;3.70;;;;;;;6.74;96.93;98879.09;5054177;28;20194;-81
2023/01/09 06:56:06;;;;;;;4.17;3.33;;;;;;;6.75;96.42;98894.00;5048822;28;20202;-81
2023/01/09 06:58:32;;;;;;;4.20;2.80;;;;;;;6.73;96.39;98890.63;5051705;28;20212;-83
2023/01/09 07:01:00;;;;;;;3.87;2.63;;;;;;;6.70;96.56;98896.16;5042651;28;20225;-84
2023/01/09 07:03:26;;;;;;;3.43;2.97;;;;;;;6.67;96.06;98901.66;5053135;28;20225;-84
2023/01/09 07:05:53;;;;;;;4.07;2.90;;;;;;;6.61;95.59;98904.78;5048067;28;20205;-81
2023/01/09 07:08:20;;;;;;;4.03;3.23;;;;;;;6.61;95.42;98915.38;5050820;28;20749;-82
2023/01/09 07:10:46;;;;;;;4.87;3.10;;;;;;;6.56;94.93;98918.34;5054561;28;20229;-81
2023/01/09 07:13:12;;;;;;;6.43;3.23;;;;;;;6.54;94.73;98922.91;5055155;28;20201;-81
2023/01/09 07:15:39;;;;;;;3.93;3.13;;;;;;;6.53;94.26;98931.81;5042667;28;20202;-80
2023/01/09 07:18:07;;;;;;;5.00;3.20;;;;;;;6.49;94.14;98932.97;5043271;28;20206;-80
2023/01/09 07:20:33;;;;;;;5.77;3.43;;;;;;;6.46;93.75;98941.13;5043354;28;20582;-81
2023/01/09 07:23:00;;;;;;;4.93;3.57;;;;;;;6.44;93.66;98944.88;5047629;28;20217;-82
2023/01/09 07:25:26;;;;;;;5.23;3.80;;;;;;;6.39;92.66;98947.00;5046568;28;20213;-82
2023/01/09 07:27:53;;;;;;;6.83;3.83;;;;;;;6.36;92.16;98949.88;5043864;28;20198;-81
2023/01/09 07:30:19;;;;;;;7.17;4.60;;;;;;;6.33;92.51;98955.38;5047995;28;20233;-80
2023/01/09 07:32:46;;;;;;;8.03;4.80;;;;;;;6.28;92.33;98953.91;5050138;28;20205;-80
2023/01/09 07:35:13;;;;;;;9.57;4.17;;;;;;;6.27;91.97;98954.84;5045209;28;20779;-79
2023/01/09 07:37:40;;;;;;;6.93;5.07;;;;;;;6.26;91.55;98958.47;5043341;28;20205;-79
2023/01/09 07:40:08;;;;;;;8.97;5.60;;;;;;;6.25;91.65;98964.72;5038581;28;20222;-81
2023/01/09 07:42:34;;;;;;;10.23;5.70;;;;;;;6.24;91.75;98964.84;5045097;28;20209;-81
2023/01/09 07:45:01;;;;;;;9.23;5.63;;;;;;;6.24;91.61;98963.03;5037805;28;20233;-81
2023/01/09 07:47:27;;;;;;;9.80;6.10;;;;;;;6.21;91.21;98965.91;5044102;28;20213;-81
2023/01/09 07:49:54;;;;;;;13.30;6.20;;;;;;;6.22;91.23;98967.59;5046870;28;20225;-82
2023/01/09 07:52:22;;;;;;;7.57;5.43;;;;;;;6.21;91.00;98970.34;5041008;28;20214;-82
2023/01/09 07:54:48;;;;;;;7.70;5.20;;;;;;;6.18;91.37;98983.75;5043029;28;20206;-83
2023/01/09 07:57:14;;;;;;;6.77;4.50;;;;;;;6.16;91.23;98983.88;5044559;28;20212;-81
2023/01/09 07:59:41;;;;;;;5.70;4.80;;;;;;;6.14;90.96;98988.41;5047316;28;20233;-81
2023/01/09 08:02:08;;;;;;;5.13;4.33;;;;;;;6.12;91.34;98994.78;5043082;28;20774;-81
2023/01/09 08:04:35;;;;;;;5.10;4.33;;;;;;;6.09;91.03;99001.13;5043777;28;20847;-82
2023/01/09 08:07:02;;;;;;;6.23;4.27;;;;;;;6.08;91.40;98998.59;5042266;28;20554;-80
2023/01/09 08:09:30;;;;;;;7.97;4.33;;;;;;;6.07;91.25;98996.91;5044512;28;20221;-82
2023/01/09 08:11:57;;;;;;;5.53;4.73;;;;;;;6.06;91.22;99000.50;5045280;28;20202;-82
2023/01/09 08:14:23;;;;;;;8.47;4.90;;;;;;;6.04;91.57;99003.25;5048226;28;20260;-80
2023/01/09 08:16:50;;;;;;;4.60;3.60;;;;;;;6.05;91.50;99002.31;5045528;28;20206;-81
2023/01/09 08:19:16;;;;;;;4.63;3.93;;;;;;;6.07;91.38;99004.84;5041736;28;20209;-80
2023/01/09 08:21:42;;;;;;;7.43;4.40;;;;;;;6.08;91.91;99010.03;5052041;28;20205;-81
2023/01/09 08:24:09;;;;;;;7.27;3.90;;;;;;;6.07;91.95;99013.63;5054975;28;20597;-81
2023/01/09 08:26:37;;;;;;;3.93;3.50;;;;;;;6.07;92.12;99010.13;5046940;28;20214;-80
2023/01/09 08:29:05;;;;;;;3.70;3.20;;;;;;;6.05;92.63;99012.88;5054373;28;20217;-81
2023/01/09 08:31:31;;;;;;;4.60;3.00;;;;;;;6.08;92.82;99020.59;5052545;28;20631;-81
2023/01/09 08:33:58;;;;;;;3.40;2.77;;;;;;;6.11;92.57;99020.34;5047817;28;20205;-81
2023/01/09 08:36:24;;;;;;;6.27;3.30;;;;;;;6.12;92.54;99027.34;5048451;28;20209;-82
2023/01/09 08:38:51;;;;;;;4.10;2.97;;;;;;;6.14;92.71;99027.22;5051787;28;20205;-83
2023/01/09 08:47:05;;;;;;;5.57;2.47;;;;;;;6.23;92.44;99037.16;5038508;28;20208;-82
2023/01/09 08:49:32;;;;;;;6.57;2.60;;;;;;;6.25;92.91;99046.69;5038774;28;20222;-80
2023/01/09 08:51:58;;;;;;;3.47;1.93;;;;;;;6.31;93.04;99033.94;5055144;28;20832;-81
2023/01/09 08:54:25;;;;;;;3.30;1.90;;;;;;;6.34;93.26;99034.59;5052017;28;20198;-80
2023/01/09 08:56:51;;;;;;;5.93;2.00;;;;;;;6.39;93.23;99047.47;5040232;28;20210;-81
2023/01/09 08:59:19;;;;;;;5.33;2.00;;;;;;;6.41;92.80;99050.88;5052102;28;20202;-80
2023/01/09 09:01:45;;;;;;;3.77;1.93;;;;;;;6.46;92.38;99056.66;5050618;28;20208;-81
2023/01/09 09:04:12;;;;;;;2.10;1.40;;;;;;;6.51;92.08;99052.72;5039029;28;20222;-80
2023/01/09 09:06:38;;;;;;;3.23;1.33;;;;;;;6.53;91.90;99052.63;5053000;28;20209;-80
2023/01/09 09:09:05;;;;;;;4.20;1.50;;;;;;;6.56;91.42;99052.41;5052073;28;20214;-80
2023/01/09 09:11:32;;;;;;;2.27;1.13;;;;;;;6.56;91.17;99042.66;5049640;28;20798;-80
2023/01/09 09:13:59;;;;;;;2.60;1.30;;;;;;;6.59;89.82;99052.19;5045956;28;20233;-82
2023/01/09 09:16:27;;;;;;;2.50;1.20;;;;;;;6.60;90.37;99041.50;5051742;28;20202;-79
2023/01/09 09:18:54;;;;;;;2.63;1.10;;;;;;;6.61;89.59;99045.84;5047319;28;20204;-80
2023/01/09 09:21:20;;;;;;;4.97;1.40;;;;;;;6.65;89.03;99051.72;5051624;28;20225;-80
2023/01/09 09:23:47;;;;;;;4.90;1.17;;;;;;;6.70;88.49;99059.34;5052083;28;20229;-81
2023/01/09 09:26:13;;;;;;;2.00;0.90;;;;;;;6.71;88.42;99055.72;5049888;28;20202;-82
2023/01/09 09:28:40;;;;;;;3.43;1.10;;;;;;;6.74;87.95;99056.34;5049294;28;20753;-82
2023/01/09 09:31:07;;;;;;;1.87;0.93;;;;;;;6.80;86.66;99055.06;5048111;28;20704;-81
2023/01/09 09:33:34;;;;;;;2.63;1.20;;;;;;;6.85;86.83;99052.91;5044681;28;20208;-80
2023/01/09 09:36:01;;;;;;;5.73;1.27;;;;;;;6.92;87.19;99054.16;5048767;28;20218;-80
2023/01/09 09:38:27;;;;;;;6.17;1.73;;;;;;;7.01;86.56;99053.47;5046384;28;20689;-81
2023/01/09 09:44:41;;;;;;;4.23;1.80;;;;;;;7.09;85.53;99060.84;5046085;28;20217;-82
2023/01/09 09:47:11;;;;;;;5.87;2.00;;;;;;;7.15;85.29;99063.91;5049387;28;20232;-80
2023/01/09 09:49:49;;;;;;;3.33;1.13;;;;;;;7.23;83.78;99060.66;5047186;28;20228;-81
2023/01/09 09:52:26;;;;;;;3.03;1.33;;;;;;;7.29;83.34;99066.34;5051897;28;20204;-82
2023/01/09 09:54:52;;;;;;;1.83;1.30;;;;;;;7.31;83.49;99064.44;5051762;28;20690;-79
2023/01/09 09:57:24;;;;;;;3.97;1.13;;;;;;;7.33;83.36;99064.34;5051117;28;20826;-82
2023/01/09 09:59:53;;;;;;;4.23;1.00;;;;;;;7.38;82.58;99075.41;5046969;28;20218;-80
2023/01/09 10:02:26;;;;;;;2.03;1.33;;;;;;;7.40;82.72;99076.13;5048275;28;20216;-80
2023/01/09 10:05:00;;;;;;;3.93;1.20;;;;;;;7.42;82.00;99083.97;5049218;28;20214;-82
2023/01/09 10:07:32;;;;;;;2.60;1.13;;;;;;;7.45;82.31;99083.75;5047506;28;20783;-80
2023/01/09 10:10:03;;;;;;;4.53;1.40;;;;;;;7.48;82.06;99071.13;5052959;28;20225;-81
2023/01/09 10:12:32;;;;;;;1.80;1.00;;;;;;;7.51;82.50;99072.69;5042225;28;20229;-80
2023/01/09 10:15:00;;;;;;;1.90;0.93;;;;;;;7.55;82.10;99067.03;5049910;28;20206;-81
2023/01/09 10:17:53;;;;;;;3.47;0.90;;;;;;;7.60;82.14;99074.63;5052410;28;20205;-80
2023/01/09 10:20:42;;;;;;;3.10;0.93;;;;;;;7.61;81.53;99074.50;5043932;28;20605;-80
2023/01/09 10:23:28;;;;;;;3.03;1.10;;;;;;;7.64;80.77;99074.28;5055270;28;20878;-82
2023/01/09 10:26:00;;;;;;;4.63;0.90;;;;;;;7.69;81.33;99065.16;5053567;28;20226;-80
2023/01/09 10:28:55;;;;;;;2.33;0.87;;;;;;;7.72;80.45;99064.88;5047925;28;20201;-79
2023/01/09 10:31:31;;;;;;;2.40;0.73;;;;;;;7.75;80.96;99069.97;5053872;28;20217;-80
2023/01/09 10:34:09;;;;;;;0.50;0.50;;;;;;;7.79;79.10;99063.47;5045732;28;20197;-81
2023/01/09 10:36:53;;;;;;;3.63;1.00;;;;;;;7.78;79.73;99049.38;5047777;28;20583;-80
2023/01/09 10:39:24;;;;;;;3.70;0.60;;;;;;;7.78;79.21;99046.72;5050040;28;20765;-84
2023/01/09 10:41:57;;;;;;;1.10;0.60;;;;;;;7.79;79.15;99035.16;5044708;28;20198;-80
2023/01/09 10:44:33;;;;;;;1.50;0.70;;;;;;;7.83;78.39;99041.91;5045943;28;20226;-81
2023/01/09 10:47:01;;;;;;;1.83;0.60;;;;;;;7.88;78.49;99042.38;5050593;28;20700;-81
2023/01/09 10:49:30;;;;;;;2.20;0.80;;;;;;;7.96;77.43;99047.09;5048958;28;20221;-85
2023/01/09 10:52:11;;;;;;;1.70;0.57;;;;;;;7.95;76.98;99034.81;5043625;28;20205;-80
2023/01/09 10:54:46;;;;;;;3.10;0.63;;;;;;;7.97;77.10;99043.50;5043607;28;20194;-83
2023/01/09 10:57:15;;;;;;;2.43;0.63;;;;;;;7.98;76.99;99037.22;5045965;28;20194;-81
2023/01/09 10:59:42;;;;;;;2.73;0.70;;;;;;;8.02;76.45;99042.19;5038090;28;20755;-81
2023/01/09 11:02:25;;;;;;;2.73;0.43;;;;;;;8.08;76.49;99032.88;5045366;28;20201;-81
2023/01/09 11:04:52;;;;;;;1.37;0.50;;;;;;;8.08;75.71;99032.03;5051013;28;20222;-81
2023/01/09 11:07:23;;;;;;;1.10;0.43;;;;;;;8.09;76.26;99031.91;5048790;28;20584;-81
2023/01/09 11:09:57;;;;;;;1.53;1.07;;;;;;;8.17;75.59;99039.28;5045839;28;20658;-81
2023/01/09 11:12:25;;;;;;;1.87;0.30;;;;;;;8.19;75.82;99038.19;5048485;28;20205;-83
2023/01/09 11:14:51;;;;;;;1.40;0.50;;;;;;;8.21;75.34;99036.28;5044789;28;20229;-82
2023/01/09 11:17:20;;;;;;;2.43;0.60;;;;;;;8.23;75.77;99036.16;5048818;28;20949;-83
2023/01/09 11:20:01;;;;;;;1.70;0.63;;;;;;;8.28;75.45;99034.78;5051376;28;20229;-83
2023/01/09 11:22:41;;;;;;;2.57;0.50;;;;;;;8.26;75.16;99042.03;5040668;28;20197;-83
2023/01/09 11:25:12;;;;;;;1.83;0.60;;;;;;;8.28;75.46;99044.56;5042619;28;20209;-82
2023/01/09 11:27:39;;;;;;;3.67;0.60;;;;;;;8.31;74.98;99037.22;5053589;28;20572;-81
2023/01/09 11:30:19;;;;;;;1.93;0.50;;;;;;;8.30;75.06;99040.81;5043872;28;20237;-81
2023/01/09 11:32:46;;;;;;;1.57;0.50;;;;;;;8.34;74.82;99047.63;5053044;28;20198;-81
2023/01/09 11:35:32;;;;;;;2.50;0.50;;;;;;;8.31;75.05;99037.22;5050884;28;20663;-81
2023/01/09 11:38:14;;;;;;;1.30;0.70;;;;;;;8.32;75.35;99036.28;5048845;28;20255;-83
2023/01/09 11:40:49;;;;;;;3.27;0.60;;;;;;;8.35;74.43;99037.84;5053667;28;21054;-82
2023/01/09 11:43:20;;;;;;;4.60;1.10;;;;;;;8.35;74.50;99043.16;5045094;28;20258;-83
2023/01/09 11:45:51;;;;;;;3.13;0.90;;;;;;;8.34;74.21;99042.31;5043214;28;20794;-82
2023/01/09 11:48:28;;;;;;;8.23;2.67;;;;;;;8.33;74.41;99053.03;5051617;28;20275;-81
2023/01/09 11:50:57;;;;;;;2.97;1.00;;;;;;;8.37;75.18;99053.66;5040980;28;20279;-81
2023/01/09 11:53:28;;;;;;;0.97;0.60;;;;;;;8.41;74.63;99057.75;5044645;28;20209;-82
2023/01/09 11:56:00;;;;;;;6.83;3.63;;;;;;;8.44;75.11;99052.16;5052505;28;20647;-81
2023/01/09 11:58:30;;;;;;;4.00;2.00;;;;;;;8.46;74.69;99060.84;5046649;28;20240;-82
2023/01/09 12:01:02;;;;;;;2.77;1.03;;;;;;;8.47;75.39;99059.88;5048590;28;20699;-82
2023/01/09 12:03:48;;;;;;;2.10;0.80;;;;;;;8.49;74.80;99057.97;5045917;28;20204;-82